Terminal Aerodrome Forecast
Issued by NWS Cleveland, OH

Home | Current Version | Previous Version | Graphics & Text | Print | Product List | Glossary On
Versions: 1 2 3 4 5 6 7 8 9 10 11 12 13 14 15 16 17 18 19 20 21
000
FTUS41 KCLE 160805 AAA
TAFTOL
TAF AMD
KTOL 160805Z 1608/1706 00000KT 3SM BR FEW200
     FM161300 07004KT P6SM SCT040
     FM170000 10006KT P6SM BKN150=

USA.gov is the U.S. government's official web portal to all federal, state and local government web resources and services.